sensor_id;sensor_type;location;lat;lon;timestamp;P1;durP1;ratioP1;P2;durP2;ratioP2
15706;SDS011;7953;54.302;10.128;2023-12-20T00:02:02;11.03;;;2.40;;
15706;SDS011;7953;54.302;10.128;2023-12-20T00:04:29;15.13;;;2.83;;
15706;SDS011;7953;54.302;10.128;2023-12-20T00:06:56;15.97;;;2.80;;
15706;SDS011;7953;54.302;10.128;2023-12-20T00:09:23;17.67;;;3.20;;
15706;SDS011;7953;54.302;10.128;2023-12-20T00:11:50;8.73;;;2.47;;
15706;SDS011;7953;54.302;10.128;2023-12-20T00:14:18;8.40;;;2.20;;
15706;SDS011;7953;54.302;10.128;2023-12-20T00:16:45;12.97;;;3.30;;
15706;SDS011;7953;54.302;10.128;2023-12-20T00:19:12;9.17;;;2.70;;
15706;SDS011;7953;54.302;10.128;2023-12-20T00:21:39;13.83;;;3.60;;
15706;SDS011;7953;54.302;10.128;2023-12-20T00:24:05;10.57;;;3.33;;
15706;SDS011;7953;54.302;10.128;2023-12-20T00:26:33;16.60;;;3.60;;
15706;SDS011;7953;54.302;10.128;2023-12-20T00:28:59;11.60;;;3.20;;
15706;SDS011;7953;54.302;10.128;2023-12-20T00:31:28;14.43;;;3.23;;
15706;SDS011;7953;54.302;10.128;2023-12-20T00:33:55;12.27;;;2.50;;
15706;SDS011;7953;54.302;10.128;2023-12-20T00:36:22;24.97;;;3.20;;
15706;SDS011;7953;54.302;10.128;2023-12-20T00:38:48;17.87;;;3.40;;
15706;SDS011;7953;54.302;10.128;2023-12-20T00:41:16;14.93;;;2.70;;
15706;SDS011;7953;54.302;10.128;2023-12-20T00:43:43;15.10;;;2.67;;
15706;SDS011;7953;54.302;10.128;2023-12-20T00:46:10;16.07;;;2.73;;
15706;SDS011;7953;54.302;10.128;2023-12-20T00:48:38;14.83;;;3.10;;
15706;SDS011;7953;54.302;10.128;2023-12-20T00:51:07;12.83;;;2.53;;
15706;SDS011;7953;54.302;10.128;2023-12-20T00:53:34;16.10;;;2.70;;
15706;SDS011;7953;54.302;10.128;2023-12-20T00:56:01;13.83;;;2.83;;
15706;SDS011;7953;54.302;10.128;2023-12-20T00:58:28;13.73;;;2.80;;
15706;SDS011;7953;54.302;10.128;2023-12-20T01:00:55;14.77;;;2.70;;
15706;SDS011;7953;54.302;10.128;2023-12-20T01:03:23;12.90;;;3.07;;
15706;SDS011;7953;54.302;10.128;2023-12-20T01:05:51;16.83;;;3.30;;
15706;SDS011;7953;54.302;10.128;2023-12-20T01:08:18;17.17;;;2.87;;
15706;SDS011;7953;54.302;10.128;2023-12-20T01:10:45;12.20;;;3.10;;
15706;SDS011;7953;54.302;10.128;2023-12-20T01:13:11;18.43;;;3.40;;
15706;SDS011;7953;54.302;10.128;2023-12-20T01:15:38;15.23;;;2.90;;
15706;SDS011;7953;54.302;10.128;2023-12-20T01:18:05;10.77;;;3.10;;
15706;SDS011;7953;54.302;10.128;2023-12-20T01:20:32;11.97;;;3.40;;
15706;SDS011;7953;54.302;10.128;2023-12-20T01:23:00;16.97;;;3.37;;
15706;SDS011;7953;54.302;10.128;2023-12-20T01:25:27;13.77;;;2.50;;
15706;SDS011;7953;54.302;10.128;2023-12-20T01:27:54;13.10;;;3.17;;
15706;SDS011;7953;54.302;10.128;2023-12-20T01:30:21;16.27;;;3.93;;
15706;SDS011;7953;54.302;10.128;2023-12-20T01:32:47;10.43;;;2.87;;
15706;SDS011;7953;54.302;10.128;2023-12-20T01:35:14;18.80;;;3.23;;
15706;SDS011;7953;54.302;10.128;2023-12-20T01:37:41;17.63;;;4.03;;
15706;SDS011;7953;54.302;10.128;2023-12-20T01:40:10;23.50;;;4.17;;
15706;SDS011;7953;54.302;10.128;2023-12-20T01:42:37;14.07;;;2.63;;
15706;SDS011;7953;54.302;10.128;2023-12-20T01:45:04;14.97;;;2.90;;
15706;SDS011;7953;54.302;10.128;2023-12-20T01:47:31;16.77;;;2.53;;
15706;SDS011;7953;54.302;10.128;2023-12-20T01:49:58;15.63;;;3.40;;
15706;SDS011;7953;54.302;10.128;2023-12-20T01:52:28;19.43;;;3.10;;
15706;SDS011;7953;54.302;10.128;2023-12-20T01:54:55;16.47;;;3.03;;
15706;SDS011;7953;54.302;10.128;2023-12-20T01:57:29;13.67;;;2.77;;
15706;SDS011;7953;54.302;10.128;2023-12-20T01:59:56;15.60;;;3.23;;
15706;SDS011;7953;54.302;10.128;2023-12-20T02:02:23;17.27;;;3.10;;
15706;SDS011;7953;54.302;10.128;2023-12-20T02:04:52;11.70;;;2.70;;
15706;SDS011;7953;54.302;10.128;2023-12-20T02:07:19;12.53;;;2.50;;
15706;SDS011;7953;54.302;10.128;2023-12-20T02:09:47;17.03;;;3.27;;
15706;SDS011;7953;54.302;10.128;2023-12-20T02:12:14;19.33;;;3.13;;
15706;SDS011;7953;54.302;10.128;2023-12-20T02:14:42;10.43;;;2.23;;
15706;SDS011;7953;54.302;10.128;2023-12-20T02:17:09;10.03;;;2.53;;
15706;SDS011;7953;54.302;10.128;2023-12-20T02:19:36;20.63;;;2.67;;
15706;SDS011;7953;54.302;10.128;2023-12-20T02:22:07;13.73;;;3.17;;
15706;SDS011;7953;54.302;10.128;2023-12-20T02:24:35;12.23;;;2.60;;
15706;SDS011;7953;54.302;10.128;2023-12-20T02:27:02;10.57;;;2.53;;
15706;SDS011;7953;54.302;10.128;2023-12-20T02:29:29;14.30;;;2.67;;
15706;SDS011;7953;54.302;10.128;2023-12-20T02:31:57;10.30;;;2.33;;
15706;SDS011;7953;54.302;10.128;2023-12-20T02:34:24;11.90;;;2.63;;
15706;SDS011;7953;54.302;10.128;2023-12-20T02:36:50;10.40;;;2.20;;
15706;SDS011;7953;54.302;10.128;2023-12-20T02:39:20;13.37;;;2.60;;
15706;SDS011;7953;54.302;10.128;2023-12-20T02:41:48;8.87;;;2.40;;
15706;SDS011;7953;54.302;10.128;2023-12-20T02:44:15;5.30;;;1.50;;
15706;SDS011;7953;54.302;10.128;2023-12-20T02:46:42;8.60;;;1.60;;
15706;SDS011;7953;54.302;10.128;2023-12-20T02:49:09;7.43;;;2.00;;
15706;SDS011;7953;54.302;10.128;2023-12-20T02:51:35;6.13;;;1.67;;
15706;SDS011;7953;54.302;10.128;2023-12-20T02:54:03;6.37;;;1.37;;
15706;SDS011;7953;54.302;10.128;2023-12-20T02:56:32;14.30;;;2.63;;
15706;SDS011;7953;54.302;10.128;2023-12-20T02:58:59;11.10;;;2.20;;
15706;SDS011;7953;54.302;10.128;2023-12-20T03:01:26;8.83;;;1.70;;
15706;SDS011;7953;54.302;10.128;2023-12-20T03:03:53;9.73;;;2.47;;
15706;SDS011;7953;54.302;10.128;2023-12-20T03:06:20;8.80;;;2.27;;
15706;SDS011;7953;54.302;10.128;2023-12-20T03:08:45;12.17;;;2.03;;
15706;SDS011;7953;54.302;10.128;2023-12-20T03:11:12;7.53;;;2.03;;
15706;SDS011;7953;54.302;10.128;2023-12-20T03:13:41;9.47;;;1.80;;
15706;SDS011;7953;54.302;10.128;2023-12-20T03:16:08;11.43;;;2.57;;
15706;SDS011;7953;54.302;10.128;2023-12-20T03:18:35;12.60;;;2.23;;
15706;SDS011;7953;54.302;10.128;2023-12-20T03:21:02;8.93;;;1.93;;
15706;SDS011;7953;54.302;10.128;2023-12-20T03:23:29;13.73;;;3.43;;
15706;SDS011;7953;54.302;10.128;2023-12-20T03:25:57;11.87;;;2.83;;
15706;SDS011;7953;54.302;10.128;2023-12-20T03:28:24;12.10;;;3.20;;
15706;SDS011;7953;54.302;10.128;2023-12-20T03:30:52;8.83;;;2.87;;
15706;SDS011;7953;54.302;10.128;2023-12-20T03:33:19;8.47;;;2.47;;
15706;SDS011;7953;54.302;10.128;2023-12-20T03:35:46;8.97;;;2.90;;
15706;SDS011;7953;54.302;10.128;2023-12-20T03:38:13;9.67;;;2.60;;
15706;SDS011;7953;54.302;10.128;2023-12-20T03:40:40;13.60;;;3.50;;
15706;SDS011;7953;54.302;10.128;2023-12-20T03:43:07;14.20;;;3.33;;
15706;SDS011;7953;54.302;10.128;2023-12-20T03:45:33;18.97;;;2.80;;
15706;SDS011;7953;54.302;10.128;2023-12-20T03:48:02;12.27;;;2.77;;
15706;SDS011;7953;54.302;10.128;2023-12-20T03:50:29;12.20;;;3.60;;
15706;SDS011;7953;54.302;10.128;2023-12-20T03:52:56;9.93;;;3.20;;
15706;SDS011;7953;54.302;10.128;2023-12-20T03:55:23;14.50;;;2.60;;
15706;SDS011;7953;54.302;10.128;2023-12-20T03:57:49;15.23;;;2.87;;
15706;SDS011;7953;54.302;10.128;2023-12-20T04:00:16;15.43;;;3.17;;
15706;SDS011;7953;54.302;10.128;2023-12-20T04:02:43;7.80;;;2.20;;
15706;SDS011;7953;54.302;10.128;2023-12-20T04:05:12;10.37;;;2.60;;
15706;SDS011;7953;54.302;10.128;2023-12-20T04:07:39;5.30;;;1.87;;
15706;SDS011;7953;54.302;10.128;2023-12-20T04:10:06;8.03;;;1.80;;
15706;SDS011;7953;54.302;10.128;2023-12-20T04:12:33;17.10;;;2.60;;
15706;SDS011;7953;54.302;10.128;2023-12-20T04:15:00;10.20;;;2.70;;
15706;SDS011;7953;54.302;10.128;2023-12-20T04:17:28;11.87;;;2.73;;
15706;SDS011;7953;54.302;10.128;2023-12-20T04:19:55;8.90;;;2.13;;
15706;SDS011;7953;54.302;10.128;2023-12-20T04:22:23;8.80;;;2.27;;
15706;SDS011;7953;54.302;10.128;2023-12-20T04:24:50;11.80;;;2.40;;
15706;SDS011;7953;54.302;10.128;2023-12-20T04:27:17;8.53;;;2.00;;
15706;SDS011;7953;54.302;10.128;2023-12-20T04:29:44;11.07;;;2.30;;
15706;SDS011;7953;54.302;10.128;2023-12-20T04:32:11;6.67;;;1.90;;
15706;SDS011;7953;54.302;10.128;2023-12-20T04:34:38;8.73;;;2.17;;
15706;SDS011;7953;54.302;10.128;2023-12-20T04:37:05;6.03;;;2.67;;
15706;SDS011;7953;54.302;10.128;2023-12-20T04:39:33;5.97;;;1.60;;
15706;SDS011;7953;54.302;10.128;2023-12-20T04:42:00;10.90;;;2.03;;
15706;SDS011;7953;54.302;10.128;2023-12-20T04:44:27;7.63;;;1.70;;
15706;SDS011;7953;54.302;10.128;2023-12-20T04:46:54;8.37;;;1.83;;
15706;SDS011;7953;54.302;10.128;2023-12-20T04:49:22;7.67;;;1.40;;
15706;SDS011;7953;54.302;10.128;2023-12-20T04:51:49;6.93;;;1.80;;
15706;SDS011;7953;54.302;10.128;2023-12-20T04:54:16;7.50;;;1.90;;
15706;SDS011;7953;54.302;10.128;2023-12-20T04:56:44;5.10;;;2.00;;
15706;SDS011;7953;54.302;10.128;2023-12-20T04:59:11;9.87;;;2.23;;
15706;SDS011;7953;54.302;10.128;2023-12-20T05:01:38;13.10;;;3.67;;
15706;SDS011;7953;54.302;10.128;2023-12-20T05:04:05;9.70;;;2.10;;
15706;SDS011;7953;54.302;10.128;2023-12-20T05:06:32;11.03;;;2.73;;
15706;SDS011;7953;54.302;10.128;2023-12-20T05:08:58;12.50;;;3.10;;
15706;SDS011;7953;54.302;10.128;2023-12-20T05:11:25;14.27;;;3.03;;
15706;SDS011;7953;54.302;10.128;2023-12-20T05:13:53;13.30;;;2.97;;
15706;SDS011;7953;54.302;10.128;2023-12-20T05:16:20;15.20;;;3.17;;
15706;SDS011;7953;54.302;10.128;2023-12-20T05:18:48;13.57;;;3.67;;
15706;SDS011;7953;54.302;10.128;2023-12-20T05:21:15;13.87;;;3.07;;
15706;SDS011;7953;54.302;10.128;2023-12-20T05:23:42;15.13;;;3.03;;
15706;SDS011;7953;54.302;10.128;2023-12-20T05:26:09;12.93;;;3.03;;
15706;SDS011;7953;54.302;10.128;2023-12-20T05:28:35;12.23;;;4.20;;
15706;SDS011;7953;54.302;10.128;2023-12-20T05:31:04;15.63;;;3.23;;
15706;SDS011;7953;54.302;10.128;2023-12-20T05:33:31;16.40;;;3.30;;
15706;SDS011;7953;54.302;10.128;2023-12-20T05:35:58;13.57;;;2.63;;
15706;SDS011;7953;54.302;10.128;2023-12-20T05:38:25;13.63;;;3.13;;
15706;SDS011;7953;54.302;10.128;2023-12-20T05:40:52;13.13;;;2.83;;
15706;SDS011;7953;54.302;10.128;2023-12-20T05:43:19;12.67;;;2.93;;
15706;SDS011;7953;54.302;10.128;2023-12-20T05:45:46;9.30;;;1.87;;
15706;SDS011;7953;54.302;10.128;2023-12-20T05:48:14;12.77;;;2.80;;
15706;SDS011;7953;54.302;10.128;2023-12-20T05:50:41;15.33;;;2.70;;
15706;SDS011;7953;54.302;10.128;2023-12-20T05:53:08;14.93;;;2.73;;
15706;SDS011;7953;54.302;10.128;2023-12-20T05:55:35;16.50;;;2.67;;
15706;SDS011;7953;54.302;10.128;2023-12-20T05:58:02;18.23;;;3.93;;
15706;SDS011;7953;54.302;10.128;2023-12-20T06:00:30;13.83;;;3.30;;
15706;SDS011;7953;54.302;10.128;2023-12-20T06:02:57;10.17;;;2.50;;
15706;SDS011;7953;54.302;10.128;2023-12-20T06:05:25;12.00;;;3.00;;
15706;SDS011;7953;54.302;10.128;2023-12-20T06:07:52;12.17;;;3.20;;
15706;SDS011;7953;54.302;10.128;2023-12-20T06:10:19;11.93;;;3.37;;
15706;SDS011;7953;54.302;10.128;2023-12-20T06:12:47;14.33;;;3.97;;
15706;SDS011;7953;54.302;10.128;2023-12-20T06:15:15;14.10;;;4.47;;
15706;SDS011;7953;54.302;10.128;2023-12-20T06:17:42;18.27;;;3.50;;
15706;SDS011;7953;54.302;10.128;2023-12-20T06:20:09;14.50;;;4.03;;
15706;SDS011;7953;54.302;10.128;2023-12-20T06:22:38;23.03;;;4.37;;
15706;SDS011;7953;54.302;10.128;2023-12-20T06:25:05;16.37;;;3.90;;
15706;SDS011;7953;54.302;10.128;2023-12-20T06:27:32;19.33;;;4.60;;
15706;SDS011;7953;54.302;10.128;2023-12-20T06:29:59;22.40;;;4.97;;
15706;SDS011;7953;54.302;10.128;2023-12-20T06:32:26;19.90;;;4.13;;
15706;SDS011;7953;54.302;10.128;2023-12-20T06:34:54;17.97;;;4.63;;
15706;SDS011;7953;54.302;10.128;2023-12-20T06:37:21;25.30;;;4.87;;
15706;SDS011;7953;54.302;10.128;2023-12-20T06:39:49;24.90;;;4.70;;
15706;SDS011;7953;54.302;10.128;2023-12-20T06:42:16;22.43;;;4.43;;
15706;SDS011;7953;54.302;10.128;2023-12-20T06:44:42;17.50;;;4.33;;
15706;SDS011;7953;54.302;10.128;2023-12-20T06:47:09;16.30;;;4.33;;
15706;SDS011;7953;54.302;10.128;2023-12-20T06:49:36;24.63;;;5.27;;
15706;SDS011;7953;54.302;10.128;2023-12-20T06:52:03;23.63;;;4.10;;
15706;SDS011;7953;54.302;10.128;2023-12-20T06:54:30;22.37;;;4.10;;
15706;SDS011;7953;54.302;10.128;2023-12-20T06:57:00;19.47;;;4.53;;
15706;SDS011;7953;54.302;10.128;2023-12-20T06:59:28;17.60;;;3.77;;
15706;SDS011;7953;54.302;10.128;2023-12-20T07:01:54;14.30;;;3.63;;
15706;SDS011;7953;54.302;10.128;2023-12-20T07:04:22;17.57;;;3.47;;
15706;SDS011;7953;54.302;10.128;2023-12-20T07:06:48;17.43;;;4.10;;
15706;SDS011;7953;54.302;10.128;2023-12-20T07:09:19;13.07;;;3.33;;
15706;SDS011;7953;54.302;10.128;2023-12-20T07:11:46;14.03;;;4.67;;
15706;SDS011;7953;54.302;10.128;2023-12-20T07:14:15;18.80;;;3.80;;
15706;SDS011;7953;54.302;10.128;2023-12-20T07:16:42;20.10;;;4.53;;
15706;SDS011;7953;54.302;10.128;2023-12-20T07:19:09;18.23;;;4.33;;
15706;SDS011;7953;54.302;10.128;2023-12-20T07:21:35;19.40;;;4.03;;
15706;SDS011;7953;54.302;10.128;2023-12-20T07:24:02;16.53;;;3.77;;
15706;SDS011;7953;54.302;10.128;2023-12-20T07:26:29;17.93;;;3.63;;
15706;SDS011;7953;54.302;10.128;2023-12-20T07:28:56;13.63;;;3.93;;
15706;SDS011;7953;54.302;10.128;2023-12-20T07:31:25;18.13;;;3.93;;
15706;SDS011;7953;54.302;10.128;2023-12-20T07:33:52;19.80;;;4.23;;
15706;SDS011;7953;54.302;10.128;2023-12-20T07:36:19;21.77;;;4.50;;
15706;SDS011;7953;54.302;10.128;2023-12-20T07:38:47;22.97;;;4.17;;
15706;SDS011;7953;54.302;10.128;2023-12-20T07:41:14;16.80;;;3.70;;
15706;SDS011;7953;54.302;10.128;2023-12-20T07:43:42;18.10;;;3.83;;
15706;SDS011;7953;54.302;10.128;2023-12-20T07:46:09;28.97;;;5.60;;
15706;SDS011;7953;54.302;10.128;2023-12-20T07:48:38;16.10;;;4.27;;
15706;SDS011;7953;54.302;10.128;2023-12-20T07:51:06;17.70;;;4.57;;
15706;SDS011;7953;54.302;10.128;2023-12-20T07:53:34;19.07;;;3.97;;
15706;SDS011;7953;54.302;10.128;2023-12-20T07:56:02;22.03;;;4.23;;
15706;SDS011;7953;54.302;10.128;2023-12-20T07:58:40;21.17;;;3.57;;
15706;SDS011;7953;54.302;10.128;2023-12-20T08:01:07;18.93;;;3.30;;
15706;SDS011;7953;54.302;10.128;2023-12-20T08:03:34;13.73;;;3.40;;
15706;SDS011;7953;54.302;10.128;2023-12-20T08:06:03;21.90;;;4.07;;
15706;SDS011;7953;54.302;10.128;2023-12-20T08:08:30;14.23;;;2.70;;
15706;SDS011;7953;54.302;10.128;2023-12-20T08:10:57;12.27;;;3.37;;
15706;SDS011;7953;54.302;10.128;2023-12-20T08:13:25;17.37;;;2.97;;
15706;SDS011;7953;54.302;10.128;2023-12-20T08:15:52;12.23;;;3.30;;
15706;SDS011;7953;54.302;10.128;2023-12-20T08:18:21;12.00;;;2.60;;
15706;SDS011;7953;54.302;10.128;2023-12-20T08:20:48;12.50;;;2.77;;
15706;SDS011;7953;54.302;10.128;2023-12-20T08:23:19;13.80;;;2.93;;
15706;SDS011;7953;54.302;10.128;2023-12-20T08:25:46;6.00;;;1.67;;
15706;SDS011;7953;54.302;10.128;2023-12-20T08:28:14;7.73;;;1.93;;
15706;SDS011;7953;54.302;10.128;2023-12-20T08:30:41;9.73;;;1.70;;
15706;SDS011;7953;54.302;10.128;2023-12-20T08:33:08;10.70;;;3.17;;
15706;SDS011;7953;54.302;10.128;2023-12-20T08:35:37;6.50;;;1.83;;
15706;SDS011;7953;54.302;10.128;2023-12-20T08:38:04;10.63;;;2.27;;
15706;SDS011;7953;54.302;10.128;2023-12-20T08:40:33;6.83;;;1.80;;
15706;SDS011;7953;54.302;10.128;2023-12-20T08:43:00;11.93;;;3.10;;
15706;SDS011;7953;54.302;10.128;2023-12-20T08:45:29;3.63;;;1.33;;
15706;SDS011;7953;54.302;10.128;2023-12-20T08:48:00;5.80;;;1.50;;
15706;SDS011;7953;54.302;10.128;2023-12-20T08:50:28;5.93;;;1.70;;
15706;SDS011;7953;54.302;10.128;2023-12-20T08:52:56;5.83;;;1.73;;
15706;SDS011;7953;54.302;10.128;2023-12-20T08:58:04;3.17;;;1.87;;
15706;SDS011;7953;54.302;10.128;2023-12-20T09:00:33;3.67;;;1.10;;
15706;SDS011;7953;54.302;10.128;2023-12-20T09:03:00;5.10;;;1.53;;
15706;SDS011;7953;54.302;10.128;2023-12-20T09:05:29;3.50;;;1.07;;
15706;SDS011;7953;54.302;10.128;2023-12-20T09:07:56;2.53;;;0.97;;
15706;SDS011;7953;54.302;10.128;2023-12-20T09:10:23;4.30;;;1.30;;
15706;SDS011;7953;54.302;10.128;2023-12-20T09:12:51;5.13;;;1.20;;
15706;SDS011;7953;54.302;10.128;2023-12-20T09:15:21;4.93;;;1.50;;
15706;SDS011;7953;54.302;10.128;2023-12-20T09:17:48;7.30;;;1.50;;
15706;SDS011;7953;54.302;10.128;2023-12-20T09:20:15;3.20;;;1.33;;
15706;SDS011;7953;54.302;10.128;2023-12-20T09:22:42;5.73;;;1.80;;
15706;SDS011;7953;54.302;10.128;2023-12-20T09:25:09;3.20;;;1.30;;
15706;SDS011;7953;54.302;10.128;2023-12-20T09:27:37;6.73;;;1.20;;
15706;SDS011;7953;54.302;10.128;2023-12-20T09:30:06;5.67;;;2.20;;
15706;SDS011;7953;54.302;10.128;2023-12-20T09:32:33;5.63;;;1.70;;
15706;SDS011;7953;54.302;10.128;2023-12-20T09:35:00;4.77;;;1.10;;
15706;SDS011;7953;54.302;10.128;2023-12-20T09:37:28;4.27;;;1.20;;
15706;SDS011;7953;54.302;10.128;2023-12-20T09:39:55;8.13;;;1.50;;
15706;SDS011;7953;54.302;10.128;2023-12-20T09:42:24;4.77;;;1.43;;
15706;SDS011;7953;54.302;10.128;2023-12-20T09:44:55;8.33;;;1.83;;
15706;SDS011;7953;54.302;10.128;2023-12-20T09:47:27;8.63;;;1.97;;
15706;SDS011;7953;54.302;10.128;2023-12-20T09:49:54;4.17;;;1.50;;
15706;SDS011;7953;54.302;10.128;2023-12-20T09:52:21;8.20;;;1.67;;
15706;SDS011;7953;54.302;10.128;2023-12-20T09:54:50;5.10;;;2.47;;
15706;SDS011;7953;54.302;10.128;2023-12-20T09:57:20;5.60;;;1.93;;
15706;SDS011;7953;54.302;10.128;2023-12-20T09:59:47;5.13;;;1.67;;
15706;SDS011;7953;54.302;10.128;2023-12-20T10:02:14;10.23;;;2.90;;
15706;SDS011;7953;54.302;10.128;2023-12-20T10:04:45;7.43;;;1.70;;
15706;SDS011;7953;54.302;10.128;2023-12-20T10:07:13;8.63;;;1.77;;
15706;SDS011;7953;54.302;10.128;2023-12-20T10:09:40;7.40;;;2.10;;
15706;SDS011;7953;54.302;10.128;2023-12-20T10:12:08;8.73;;;1.83;;
15706;SDS011;7953;54.302;10.128;2023-12-20T10:14:35;7.83;;;1.80;;
15706;SDS011;7953;54.302;10.128;2023-12-20T10:17:04;5.00;;;1.73;;
15706;SDS011;7953;54.302;10.128;2023-12-20T10:19:32;9.87;;;2.10;;
15706;SDS011;7953;54.302;10.128;2023-12-20T10:22:01;6.83;;;2.23;;
15706;SDS011;7953;54.302;10.128;2023-12-20T10:24:30;8.77;;;1.93;;
15706;SDS011;7953;54.302;10.128;2023-12-20T10:27:03;18.20;;;2.43;;
15706;SDS011;7953;54.302;10.128;2023-12-20T10:29:31;6.47;;;1.93;;
15706;SDS011;7953;54.302;10.128;2023-12-20T10:31:59;9.70;;;2.30;;
15706;SDS011;7953;54.302;10.128;2023-12-20T10:34:26;8.73;;;1.87;;
15706;SDS011;7953;54.302;10.128;2023-12-20T10:36:53;4.87;;;1.73;;
15706;SDS011;7953;54.302;10.128;2023-12-20T10:39:21;12.40;;;2.10;;
15706;SDS011;7953;54.302;10.128;2023-12-20T10:41:49;7.73;;;1.87;;
15706;SDS011;7953;54.302;10.128;2023-12-20T10:44:16;6.53;;;1.63;;
15706;SDS011;7953;54.302;10.128;2023-12-20T10:46:43;8.60;;;1.87;;
15706;SDS011;7953;54.302;10.128;2023-12-20T10:49:16;6.87;;;1.20;;
15706;SDS011;7953;54.302;10.128;2023-12-20T10:51:45;5.57;;;1.80;;
15706;SDS011;7953;54.302;10.128;2023-12-20T10:54:15;6.80;;;1.63;;
15706;SDS011;7953;54.302;10.128;2023-12-20T10:56:43;11.10;;;2.00;;
15706;SDS011;7953;54.302;10.128;2023-12-20T10:59:11;5.97;;;1.80;;
15706;SDS011;7953;54.302;10.128;2023-12-20T11:01:41;8.67;;;3.13;;
15706;SDS011;7953;54.302;10.128;2023-12-20T11:04:10;14.40;;;2.23;;
15706;SDS011;7953;54.302;10.128;2023-12-20T11:06:46;8.87;;;2.20;;
15706;SDS011;7953;54.302;10.128;2023-12-20T11:09:19;7.73;;;1.60;;
15706;SDS011;7953;54.302;10.128;2023-12-20T11:11:56;6.17;;;2.67;;
15706;SDS011;7953;54.302;10.128;2023-12-20T11:14:29;3.70;;;1.03;;
15706;SDS011;7953;54.302;10.128;2023-12-20T11:17:07;6.67;;;1.40;;
15706;SDS011;7953;54.302;10.128;2023-12-20T11:19:36;5.17;;;2.00;;
15706;SDS011;7953;54.302;10.128;2023-12-20T11:22:04;4.90;;;1.20;;
15706;SDS011;7953;54.302;10.128;2023-12-20T11:24:32;7.23;;;1.80;;
15706;SDS011;7953;54.302;10.128;2023-12-20T11:27:04;6.30;;;2.00;;
15706;SDS011;7953;54.302;10.128;2023-12-20T11:29:35;6.23;;;1.87;;
15706;SDS011;7953;54.302;10.128;2023-12-20T11:32:02;7.03;;;2.70;;
15706;SDS011;7953;54.302;10.128;2023-12-20T11:34:50;7.50;;;2.03;;
15706;SDS011;7953;54.302;10.128;2023-12-20T11:37:17;6.73;;;2.03;;
15706;SDS011;7953;54.302;10.128;2023-12-20T11:39:55;10.43;;;3.50;;
15706;SDS011;7953;54.302;10.128;2023-12-20T11:42:23;8.33;;;1.70;;
15706;SDS011;7953;54.302;10.128;2023-12-20T11:44:50;10.97;;;2.57;;
15706;SDS011;7953;54.302;10.128;2023-12-20T11:47:17;8.13;;;2.23;;
15706;SDS011;7953;54.302;10.128;2023-12-20T11:49:46;12.17;;;2.60;;
15706;SDS011;7953;54.302;10.128;2023-12-20T11:52:13;9.80;;;2.23;;
15706;SDS011;7953;54.302;10.128;2023-12-20T11:54:40;12.13;;;3.03;;
15706;SDS011;7953;54.302;10.128;2023-12-20T11:57:07;9.37;;;2.83;;
15706;SDS011;7953;54.302;10.128;2023-12-20T11:59:35;12.03;;;2.70;;
15706;SDS011;7953;54.302;10.128;2023-12-20T12:02:03;15.53;;;3.00;;
15706;SDS011;7953;54.302;10.128;2023-12-20T12:04:30;8.43;;;2.27;;
15706;SDS011;7953;54.302;10.128;2023-12-20T12:06:57;11.23;;;2.53;;
15706;SDS011;7953;54.302;10.128;2023-12-20T12:09:24;14.83;;;2.20;;
15706;SDS011;7953;54.302;10.128;2023-12-20T12:11:51;13.70;;;2.63;;
15706;SDS011;7953;54.302;10.128;2023-12-20T12:14:18;15.47;;;2.77;;
15706;SDS011;7953;54.302;10.128;2023-12-20T12:16:47;19.27;;;3.83;;
15706;SDS011;7953;54.302;10.128;2023-12-20T12:19:21;11.27;;;2.97;;
15706;SDS011;7953;54.302;10.128;2023-12-20T12:21:49;16.23;;;4.20;;
15706;SDS011;7953;54.302;10.128;2023-12-20T12:24:19;10.30;;;2.87;;
15706;SDS011;7953;54.302;10.128;2023-12-20T12:26:49;12.57;;;3.23;;
15706;SDS011;7953;54.302;10.128;2023-12-20T12:29:16;12.40;;;2.73;;
15706;SDS011;7953;54.302;10.128;2023-12-20T12:31:43;14.67;;;3.17;;
15706;SDS011;7953;54.302;10.128;2023-12-20T12:34:12;17.23;;;4.13;;
15706;SDS011;7953;54.302;10.128;2023-12-20T12:36:39;10.73;;;2.63;;
15706;SDS011;7953;54.302;10.128;2023-12-20T12:39:06;8.03;;;3.00;;
15706;SDS011;7953;54.302;10.128;2023-12-20T12:41:33;8.87;;;3.07;;
15706;SDS011;7953;54.302;10.128;2023-12-20T12:44:00;10.63;;;3.17;;
15706;SDS011;7953;54.302;10.128;2023-12-20T12:46:27;10.90;;;2.80;;
15706;SDS011;7953;54.302;10.128;2023-12-20T12:48:54;9.27;;;2.83;;
15706;SDS011;7953;54.302;10.128;2023-12-20T12:51:22;5.43;;;2.77;;
15706;SDS011;7953;54.302;10.128;2023-12-20T12:53:49;9.33;;;3.50;;
15706;SDS011;7953;54.302;10.128;2023-12-20T12:56:16;19.00;;;4.13;;
15706;SDS011;7953;54.302;10.128;2023-12-20T12:58:43;12.80;;;4.07;;
15706;SDS011;7953;54.302;10.128;2023-12-20T13:01:10;11.30;;;3.37;;
15706;SDS011;7953;54.302;10.128;2023-12-20T13:03:37;12.60;;;3.60;;
15706;SDS011;7953;54.302;10.128;2023-12-20T13:06:04;14.97;;;3.57;;
15706;SDS011;7953;54.302;10.128;2023-12-20T13:08:35;17.50;;;3.97;;
15706;SDS011;7953;54.302;10.128;2023-12-20T13:11:02;11.47;;;3.50;;
15706;SDS011;7953;54.302;10.128;2023-12-20T13:13:31;14.67;;;3.63;;
15706;SDS011;7953;54.302;10.128;2023-12-20T13:15:58;17.17;;;3.33;;
15706;SDS011;7953;54.302;10.128;2023-12-20T13:18:26;15.30;;;3.97;;
15706;SDS011;7953;54.302;10.128;2023-12-20T13:20:52;16.10;;;3.93;;
15706;SDS011;7953;54.302;10.128;2023-12-20T13:23:20;11.83;;;3.60;;
15706;SDS011;7953;54.302;10.128;2023-12-20T13:25:48;13.90;;;3.93;;
15706;SDS011;7953;54.302;10.128;2023-12-20T13:28:15;16.67;;;4.07;;
15706;SDS011;7953;54.302;10.128;2023-12-20T13:30:42;17.37;;;4.40;;
15706;SDS011;7953;54.302;10.128;2023-12-20T13:33:09;21.40;;;4.33;;
15706;SDS011;7953;54.302;10.128;2023-12-20T13:35:38;16.87;;;4.33;;
15706;SDS011;7953;54.302;10.128;2023-12-20T13:38:05;12.87;;;4.73;;
15706;SDS011;7953;54.302;10.128;2023-12-20T13:40:32;12.77;;;4.40;;
15706;SDS011;7953;54.302;10.128;2023-12-20T13:43:01;13.13;;;4.30;;
15706;SDS011;7953;54.302;10.128;2023-12-20T13:45:28;18.87;;;4.63;;
15706;SDS011;7953;54.302;10.128;2023-12-20T13:47:55;15.30;;;5.57;;
15706;SDS011;7953;54.302;10.128;2023-12-20T13:50:23;11.17;;;4.07;;
15706;SDS011;7953;54.302;10.128;2023-12-20T13:52:49;13.60;;;4.60;;
15706;SDS011;7953;54.302;10.128;2023-12-20T13:55:16;14.13;;;4.43;;
15706;SDS011;7953;54.302;10.128;2023-12-20T13:57:47;18.23;;;5.60;;
15706;SDS011;7953;54.302;10.128;2023-12-20T14:00:15;15.27;;;4.97;;
15706;SDS011;7953;54.302;10.128;2023-12-20T14:02:43;13.47;;;4.33;;
15706;SDS011;7953;54.302;10.128;2023-12-20T14:05:11;14.30;;;5.13;;
15706;SDS011;7953;54.302;10.128;2023-12-20T14:07:39;13.20;;;4.93;;
15706;SDS011;7953;54.302;10.128;2023-12-20T14:10:09;14.87;;;5.27;;
15706;SDS011;7953;54.302;10.128;2023-12-20T14:12:38;15.30;;;4.90;;
15706;SDS011;7953;54.302;10.128;2023-12-20T14:15:09;12.27;;;4.70;;
15706;SDS011;7953;54.302;10.128;2023-12-20T14:17:39;13.30;;;5.10;;
15706;SDS011;7953;54.302;10.128;2023-12-20T14:20:07;13.57;;;4.93;;
15706;SDS011;7953;54.302;10.128;2023-12-20T14:22:37;14.80;;;4.83;;
15706;SDS011;7953;54.302;10.128;2023-12-20T14:25:10;17.10;;;5.27;;
15706;SDS011;7953;54.302;10.128;2023-12-20T14:27:37;11.83;;;5.07;;
15706;SDS011;7953;54.302;10.128;2023-12-20T14:30:04;14.20;;;5.23;;
15706;SDS011;7953;54.302;10.128;2023-12-20T14:32:34;15.80;;;5.37;;
15706;SDS011;7953;54.302;10.128;2023-12-20T14:35:05;12.20;;;4.87;;
15706;SDS011;7953;54.302;10.128;2023-12-20T14:37:33;17.93;;;6.40;;
15706;SDS011;7953;54.302;10.128;2023-12-20T14:40:00;21.60;;;5.53;;
15706;SDS011;7953;54.302;10.128;2023-12-20T14:42:27;19.43;;;5.13;;
15706;SDS011;7953;54.302;10.128;2023-12-20T14:44:54;12.47;;;4.70;;